DeLand, Florida
Current Conditions -  °F | °C
As of 5:15 PM on Sunday 23 Nov 2014 (Local Time) from KDED Reporting Station
Few Clouds Few Clouds  
Wind Chill: 81°   Ceiling: Unl
Heat Index: 84°   Visibility: 10mi
Dew Point: 70°   Wind: 8mph
Humidity: 70%   Direction: 170°S
Pressure: 29.89"   Gusts: NA
Location:  29.07°N, 81.26°W
Report Text: KDED 232215Z AUTO 17007KT 10SM FEW042 27/21 A2989 RMK AO1
Loading
Personal Weather Stations






























Interactive Weather Map New forecast layout! Learn more

10-Day Weather Forecast

Advertisements
Track Severe Weather on mobile